VGSY/ZYL METAR and TAF weather

Enter ICAO airport designator
Station Type Date Time Source
VGSY METAR 2021/07/22 06:00 UTC NOAA

VGSY 220600Z 11007KT 7000 P/C FEW018 32/22 Q0997 NOSIG


Station Type Date Time Source
VGSY Decoded METAR 2021/07/22 06:00 UTC NOAA

Sylhet, Bangladesh (VGSY) 24-54N 091-53E 35M
Jul 22, 2021 - 02:00 AM EDT / 2021.07.22 0600 UTC
Wind: from the ESE (110 degrees) at 8 MPH (7 KT):0
Visibility: 4 mile(s):0
Sky conditions: mostly clear
Temperature: 89 F (32 C)
Heat index: 95.0 F (35.0 C):1
Dew Point: 71 F (22 C)
Relative Humidity: 55%
Pressure (altimeter): 29.44 in. Hg (0997 hPa)
ob: VGSY 220600Z 11007KT 7000 P/C FEW018 32/22 Q0997 NOSIG
cycle: 6

Station Type Date Time Source
VGSY TAF 2011/08/08 06:00 UTC NOAA

TAF VGSY 080400Z 0806/0912 06005KT 5000 SCT012 BKN100
BECMG 0900/0902 09005KT 3500HZ SCT015 BKN100
TEMPO. 0806/0912 21020G30KT 2000 RA/TSRA BKN007 FEW025CB OVC080.

Example: see airport list